Time;durP1;ratioP1;P1;durP2;ratioP2;P2;SDS_P1;SDS_P2;PMS_P1;PMS_P2;Temp;Humidity;BMP_temperature;BMP_pressure;BME280_temperature;BME280_humidity;BME280_pressure;Samples;Min_cycle;Max_cycle;Signal;HPM_P1;HPM_P2
2023/09/19 04:40:22;;;;;;;2.85;1.90;;;;;;;;;;5055994;28;20463;-82
2023/09/19 04:42:56;;;;;;;2.28;1.75;;;;;;;;;;5058676;28;21737;-82
2023/09/19 04:45:22;;;;;;;2.85;1.58;;;;;;;;;;5056869;28;20032;-82
2023/09/19 04:47:47;;;;;;;3.67;2.25;;;;;;;;;;5048996;28;20029;-82
2023/09/19 04:50:13;;;;;;;3.60;2.03;;;;;;;;;;5059211;28;20031;-83
2023/09/19 04:52:44;;;;;;;3.83;2.15;;;;;;;;;;5052334;28;20048;-82
2023/09/19 04:55:16;;;;;;;2.25;1.35;;;;;;;;;;5051736;28;20021;-82
2023/09/19 04:57:46;;;;;;;2.85;1.17;;;;;;;;;;5057507;28;20051;-83
2023/09/19 05:00:14;;;;;;;3.72;1.98;;;;;;;;;;5053589;28;20040;-82
2023/09/19 05:02:43;;;;;;;2.72;1.85;;;;;;;;;;5055223;28;20453;-82
2023/09/19 05:05:14;;;;;;;3.63;1.98;;;;;;;;;;5052925;28;20036;-82
2023/09/19 05:07:41;;;;;;;2.28;1.95;;;;;;;;;;5052071;28;20041;-83
2023/09/19 05:10:07;;;;;;;2.05;1.45;;;;;;;;;;5045659;28;20029;-81
2023/09/19 05:12:36;;;;;;;2.38;1.80;;;;;;;;;;5052470;28;20041;-85
2023/09/19 05:15:10;;;;;;;3.72;1.42;;;;;;;;;;5052417;28;20362;-83
2023/09/19 05:17:36;;;;;;;3.47;2.22;;;;;;;;;;5049849;28;20033;-83
2023/09/19 05:20:06;;;;;;;3.67;2.38;;;;;;;;;;5049190;28;20138;-83
2023/09/19 05:22:32;;;;;;;3.53;1.80;;;;;;;;;;5050676;28;20033;-84
2023/09/19 05:24:59;;;;;;;2.95;1.90;;;;;;;;;;5050107;28;20469;-84
2023/09/19 05:27:24;;;;;;;1.98;1.70;;;;;;;;;;5047634;28;20020;-83
2023/09/19 05:29:53;;;;;;;1.55;1.27;;;;;;;;;;5047936;28;20028;-83
2023/09/19 05:32:19;;;;;;;2.03;1.52;;;;;;;;;;5046216;28;20033;-83
2023/09/19 05:34:45;;;;;;;2.22;2.03;;;;;;;;;;5051442;28;20029;-83
2023/09/19 05:37:11;;;;;;;1.77;1.02;;;;;;;;;;5044858;28;20036;-83
2023/09/19 05:39:37;;;;;;;2.53;2.05;;;;;;;;;;5051894;28;20500;-83
2023/09/19 05:42:03;;;;;;;2.08;1.63;;;;;;;;;;5055263;28;20104;-84
2023/09/19 05:44:29;;;;;;;2.67;2.13;;;;;;;;;;5047978;28;20029;-83
2023/09/19 05:46:56;;;;;;;2.00;1.65;;;;;;;;;;5048015;28;20028;-83
2023/09/19 05:49:22;;;;;;;1.98;1.38;;;;;;;;;;5048075;28;20026;-84
2023/09/19 05:51:47;;;;;;;1.85;1.50;;;;;;;;;;5034992;28;20036;-84
2023/09/19 05:54:12;;;;;;;2.15;1.75;;;;;;;;;;5033507;28;20029;-83
2023/09/19 05:56:38;;;;;;;2.53;1.48;;;;;;;;;;5045022;28;20032;-88
2023/09/19 05:59:05;;;;;;;3.45;1.98;;;;;;;;;;5032365;28;20048;-83
2023/09/19 06:01:32;;;;;;;1.75;1.48;;;;;;;;;;5030105;28;20030;-84
2023/09/19 06:04:00;;;;;;;1.67;1.55;;;;;;;;;;5033686;28;20025;-83
2023/09/19 06:06:26;;;;;;;2.15;1.60;;;;;;;;;;5044879;28;20545;-83
2023/09/19 06:08:51;;;;;;;2.67;1.83;;;;;;;;;;5035492;28;20108;-83
2023/09/19 06:11:20;;;;;;;2.03;1.65;;;;;;;;;;5038735;28;20021;-84
2023/09/19 06:13:47;;;;;;;2.67;1.77;;;;;;;;;;5034157;28;20075;-83
2023/09/19 06:16:13;;;;;;;2.13;1.52;;;;;;;;;;5039658;28;20033;-83
2023/09/19 06:18:38;;;;;;;1.70;1.50;;;;;;;;;;5033193;28;20080;-83
2023/09/19 06:21:07;;;;;;;2.05;1.52;;;;;;;;;;5034092;28;20043;-81
2023/09/19 06:23:34;;;;;;;3.63;2.00;;;;;;;;;;5041352;28;20454;-81
2023/09/19 06:25:59;;;;;;;5.10;2.88;;;;;;;;;;5042146;28;20100;-82
2023/09/19 06:28:26;;;;;;;2.08;1.40;;;;;;;;;;5032024;28;20553;-81
2023/09/19 06:30:53;;;;;;;2.38;1.70;;;;;;;;;;5032155;28;20021;-81
2023/09/19 06:33:21;;;;;;;1.83;1.33;;;;;;;;;;5034529;28;20534;-80
2023/09/19 06:35:47;;;;;;;1.70;1.15;;;;;;;;;;5034650;28;20079;-82
2023/09/19 06:38:15;;;;;;;1.90;1.42;;;;;;;;;;5035119;28;20044;-80
2023/09/19 06:40:44;;;;;;;1.70;1.25;;;;;;;;;;5042464;28;20100;-79
2023/09/19 06:43:12;;;;;;;7.35;2.33;;;;;;;;;;5035621;28;20029;-79
2023/09/19 06:45:38;;;;;;;1.88;1.40;;;;;;;;;;5038047;28;20052;-79
2023/09/19 06:48:05;;;;;;;2.25;1.65;;;;;;;;;;5037244;28;20492;-79
2023/09/19 06:50:30;;;;;;;2.03;1.17;;;;;;;;;;5045472;28;20090;-79
2023/09/19 06:52:57;;;;;;;1.40;1.20;;;;;;;;;;5031027;28;20029;-79
2023/09/19 06:55:27;;;;;;;1.40;1.15;;;;;;;;;;5037102;28;20044;-79
2023/09/19 06:57:56;;;;;;;1.85;1.20;;;;;;;;;;5031385;28;20087;-80
2023/09/19 07:00:23;;;;;;;1.90;1.63;;;;;;;;;;5033064;28;20441;-79
2023/09/19 07:03:07;;;;;;;1.65;1.08;;;;;;;;;;5030694;28;20041;-79
2023/09/19 07:05:37;;;;;;;1.10;0.82;;;;;;;;;;5027132;28;20057;-79
2023/09/19 07:08:03;;;;;;;2.30;1.60;;;;;;;;;;5014920;28;20033;-79
2023/09/19 07:10:30;;;;;;;5.40;1.25;;;;;;;;;;5036919;28;20446;-85
2023/09/19 07:13:04;;;;;;;2.17;1.52;;;;;;;;;;5043858;28;20025;-85
2023/09/19 07:15:35;;;;;;;1.90;1.33;;;;;;;;;;5044736;28;20468;-85
2023/09/19 07:18:00;;;;;;;1.05;0.90;;;;;;;;;;5037740;28;20029;-85
2023/09/19 07:20:27;;;;;;;1.45;1.35;;;;;;;;;;5042452;28;20361;-85
2023/09/19 07:22:54;;;;;;;1.80;1.38;;;;;;;;;;5031935;28;20120;-85
2023/09/19 07:25:20;;;;;;;1.00;0.90;;;;;;;;;;5035657;28;20030;-85
2023/09/19 07:27:46;;;;;;;2.58;1.35;;;;;;;;;;5031469;28;20048;-85
2023/09/19 07:30:12;;;;;;;2.08;1.77;;;;;;;;;;5038117;28;20056;-85
2023/09/19 07:32:38;;;;;;;4.60;1.20;;;;;;;;;;5037216;28;20504;-85
2023/09/19 07:35:07;;;;;;;3.05;1.48;;;;;;;;;;5038548;28;20433;-85
2023/09/19 07:37:33;;;;;;;2.00;1.20;;;;;;;;;;5045088;28;20028;-85
2023/09/19 07:40:00;;;;;;;5.20;0.70;;;;;;;;;;5033699;28;20033;-85
2023/09/19 07:42:26;;;;;;;3.88;1.63;;;;;;;;;;5041796;28;20037;-85
2023/09/19 07:44:53;;;;;;;2.50;1.65;;;;;;;;;;5039099;28;20079;-85
2023/09/19 07:47:20;;;;;;;3.17;1.75;;;;;;;;;;5046046;28;20029;-85
2023/09/19 07:49:47;;;;;;;1.60;1.13;;;;;;;;;;5036319;28;20053;-85
2023/09/19 07:52:15;;;;;;;1.55;1.30;;;;;;;;;;5041215;28;20115;-84
2023/09/19 07:54:41;;;;;;;2.90;1.88;;;;;;;;;;5037316;28;20026;-85
2023/09/19 07:57:07;;;;;;;2.22;1.33;;;;;;;;;;5038038;28;20127;-84
2023/09/19 07:59:32;;;;;;;2.60;1.23;;;;;;;;;;5036193;28;20021;-85
2023/09/19 08:01:58;;;;;;;2.60;1.75;;;;;;;;;;5038074;28;20070;-84
2023/09/19 08:04:25;;;;;;;4.70;1.38;;;;;;;;;;5035925;28;20090;-85
2023/09/19 08:06:51;;;;;;;1.60;0.93;;;;;;;;;;5039921;28;20041;-85
2023/09/19 08:09:20;;;;;;;2.53;1.65;;;;;;;;;;5034263;28;20416;-85
2023/09/19 08:11:47;;;;;;;2.03;1.30;;;;;;;;;;5030533;28;20106;-85
2023/09/19 08:14:14;;;;;;;1.30;1.20;;;;;;;;;;5039742;28;20036;-86
2023/09/19 08:16:40;;;;;;;1.88;1.30;;;;;;;;;;5030565;28;20021;-84
2023/09/19 08:19:05;;;;;;;2.75;1.90;;;;;;;;;;5041237;28;20096;-85
2023/09/19 08:21:32;;;;;;;3.13;1.30;;;;;;;;;;5039298;28;20175;-82
2023/09/19 08:23:57;;;;;;;4.75;1.75;;;;;;;;;;5038968;28;20036;-83
2023/09/19 08:26:24;;;;;;;4.13;2.55;;;;;;;;;;5042014;28;20116;-83
2023/09/19 08:28:51;;;;;;;2.13;1.20;;;;;;;;;;5036529;28;20096;-82
2023/09/19 08:31:16;;;;;;;2.03;1.17;;;;;;;;;;5047386;28;20495;-83
2023/09/19 08:33:45;;;;;;;1.60;1.00;;;;;;;;;;5041364;28;20056;-84
2023/09/19 08:36:14;;;;;;;2.90;1.60;;;;;;;;;;5041481;28;20538;-83
2023/09/19 08:38:39;;;;;;;1.70;1.20;;;;;;;;;;5031927;28;20049;-83
2023/09/19 08:41:07;;;;;;;1.95;1.40;;;;;;;;;;5041274;28;20029;-84
2023/09/19 08:43:34;;;;;;;1.77;1.27;;;;;;;;;;5042992;28;20029;-83
2023/09/19 08:46:05;;;;;;;2.17;1.55;;;;;;;;;;5035102;28;20526;-84
2023/09/19 08:48:34;;;;;;;1.05;0.95;;;;;;;;;;5042176;28;20028;-84
2023/09/19 08:51:07;;;;;;;1.92;1.55;;;;;;;;;;5042815;28;20049;-85
2023/09/19 08:53:46;;;;;;;2.13;1.67;;;;;;;;;;5036992;28;20033;-83
2023/09/19 08:56:13;;;;;;;2.08;1.83;;;;;;;;;;5039250;28;20070;-84
2023/09/19 08:58:55;;;;;;;2.85;1.80;;;;;;;;;;5042993;28;20016;-83
2023/09/19 09:01:24;;;;;;;1.98;1.52;;;;;;;;;;5041419;28;20027;-84
2023/09/19 09:03:52;;;;;;;2.13;1.73;;;;;;;;;;5043658;28;20043;-85
2023/09/19 09:06:20;;;;;;;2.13;1.58;;;;;;;;;;5039442;28;20033;-85
2023/09/19 09:08:46;;;;;;;3.58;2.10;;;;;;;;;;5044706;28;20021;-85
2023/09/19 09:11:13;;;;;;;1.30;1.10;;;;;;;;;;5040636;28;20033;-86
2023/09/19 09:13:41;;;;;;;2.13;1.85;;;;;;;;;;5038904;28;20543;-87
2023/09/19 09:16:08;;;;;;;4.07;2.60;;;;;;;;;;5044111;28;20040;-85
2023/09/19 09:18:34;;;;;;;2.78;2.50;;;;;;;;;;5035628;28;20053;-86
2023/09/19 09:20:59;;;;;;;3.88;2.03;;;;;;;;;;5037699;28;20508;-84
2023/09/19 09:23:29;;;;;;;3.17;2.25;;;;;;;;;;5039524;28;20037;-86
2023/09/19 09:25:56;;;;;;;2.25;1.80;;;;;;;;;;5041846;28;20032;-86
2023/09/19 09:28:27;;;;;;;2.33;1.50;;;;;;;;;;5039298;28;20491;-85
2023/09/19 09:30:54;;;;;;;2.90;2.10;;;;;;;;;;5041590;28;20086;-84
2023/09/19 09:33:22;;;;;;;7.22;2.55;;;;;;;;;;5037770;28;20119;-86
2023/09/19 09:35:51;;;;;;;6.07;1.73;;;;;;;;;;5044762;28;20055;-84
2023/09/19 09:38:18;;;;;;;1.58;1.08;;;;;;;;;;5043386;28;20141;-84
2023/09/19 09:43:36;;;;;;;1.67;1.25;;;;;;;;;;5036984;28;20061;-83
2023/09/19 09:49:18;;;;;;;4.45;2.20;;;;;;;;;;5035746;28;20040;-82
2023/09/19 09:51:45;;;;;;;3.22;1.50;;;;;;;;;;5036596;28;20064;-85
2023/09/19 09:54:12;;;;;;;1.85;1.23;;;;;;;;;;5038662;28;20139;-82
2023/09/19 09:57:23;;;;;;;2.88;1.40;;;;;;;;;;5038365;28;20033;-84
2023/09/19 10:02:40;;;;;;;8.38;2.50;;;;;;;;;;5043359;28;20053;-85
2023/09/19 10:05:22;;;;;;;3.28;2.00;;;;;;;;;;5034436;28;20036;-84
2023/09/19 10:07:59;;;;;;;1.48;1.15;;;;;;;;;;5039616;28;20497;-82
2023/09/19 10:10:45;;;;;;;3.85;1.67;;;;;;;;;;5036629;28;20041;-84
2023/09/19 10:13:13;;;;;;;3.13;2.13;;;;;;;;;;5037085;28;20520;-83
2023/09/19 10:15:46;;;;;;;1.33;1.20;;;;;;;;;;5035434;28;20049;-81
2023/09/19 10:18:18;;;;;;;4.03;1.90;;;;;;;;;;5029009;28;20551;-83
2023/09/19 10:20:45;;;;;;;1.88;1.25;;;;;;;;;;5036307;28;20032;-84
2023/09/19 10:23:14;;;;;;;2.50;1.30;;;;;;;;;;5034485;28;20025;-86
2023/09/19 10:25:42;;;;;;;2.83;1.52;;;;;;;;;;5039412;28;20030;-84
2023/09/19 10:28:13;;;;;;;3.92;1.80;;;;;;;;;;5037416;28;20075;-81
2023/09/19 10:30:43;;;;;;;2.42;1.70;;;;;;;;;;5042650;28;20104;-84
2023/09/19 10:33:11;;;;;;;1.70;1.23;;;;;;;;;;5044734;28;20025;-86
2023/09/19 10:35:45;;;;;;;3.60;1.15;;;;;;;;;;5039028;28;20437;-82
2023/09/19 10:38:11;;;;;;;2.58;1.23;;;;;;;;;;5031791;28;20052;-83
2023/09/19 10:40:42;;;;;;;2.58;1.52;;;;;;;;;;5037461;28;20491;-85
2023/09/19 10:43:17;;;;;;;1.60;1.23;;;;;;;;;;5041077;28;20026;-84
2023/09/19 10:45:44;;;;;;;2.13;1.13;;;;;;;;;;5047246;28;20171;-83
2023/09/19 10:48:10;;;;;;;2.28;1.73;;;;;;;;;;5044196;28;20108;-84
2023/09/19 10:50:55;;;;;;;3.50;2.05;;;;;;;;;;5047896;28;20108;-85
2023/09/19 10:53:22;;;;;;;2.28;1.73;;;;;;;;;;5031291;28;20044;-82
2023/09/19 10:55:54;;;;;;;1.65;1.33;;;;;;;;;;5037635;28;20024;-84
2023/09/19 10:58:34;;;;;;;1.88;1.33;;;;;;;;;;5046369;28;20381;-85
2023/09/19 11:01:06;;;;;;;5.05;2.15;;;;;;;;;;5035569;28;20024;-84
2023/09/19 11:03:33;;;;;;;1.52;1.25;;;;;;;;;;5044267;28;20021;-85
2023/09/19 11:06:05;;;;;;;2.33;1.63;;;;;;;;;;5034801;28;20025;-84
2023/09/19 11:11:40;;;;;;;;;;;;;;;;;;5030756;28;20037;-84
2023/09/19 11:14:23;;;;;;;2.10;1.55;;;;;;;;;;5040897;28;19916;-85
2023/09/19 11:17:07;;;;;;;2.58;1.80;;;;;;;;;;5037127;28;20030;-86
2023/09/19 11:22:51;;;;;;;2.08;1.70;;;;;;;;;;5037291;28;20025;-86
2023/09/19 11:25:34;;;;;;;5.38;2.30;;;;;;;;;;5037278;28;20116;-82
2023/09/19 11:28:05;;;;;;;2.50;1.65;;;;;;;;;;5036960;28;20580;-83
2023/09/19 11:30:36;;;;;;;3.70;1.65;;;;;;;;;;5035981;28;20074;-85
2023/09/19 11:36:15;;;;;;;1.70;1.23;;;;;;;;;;5040998;28;20498;-83
2023/09/19 11:38:47;;;;;;;1.98;1.70;;;;;;;;;;5038173;28;20652;-83
2023/09/19 11:41:22;;;;;;;2.70;1.58;;;;;;;;;;5039475;28;20033;-83
2023/09/19 11:43:47;;;;;;;1.63;1.25;;;;;;;;;;5044989;28;20025;-85
2023/09/19 11:46:16;;;;;;;2.47;1.30;;;;;;;;;;5040112;28;20549;-83
2023/09/19 11:48:44;;;;;;;2.13;1.33;;;;;;;;;;5035623;28;20028;-85
2023/09/19 11:51:15;;;;;;;1.45;1.10;;;;;;;;;;5044476;28;20084;-83
2023/09/19 11:53:43;;;;;;;4.72;1.63;;;;;;;;;;5045656;28;20032;-85
2023/09/19 11:56:10;;;;;;;2.45;1.40;;;;;;;;;;5033909;28;20022;-84
2023/09/19 11:58:37;;;;;;;2.35;1.52;;;;;;;;;;5042199;28;20021;-81
2023/09/19 12:01:08;;;;;;;2.53;1.70;;;;;;;;;;5042053;28;20508;-82
2023/09/19 12:03:40;;;;;;;2.20;1.50;;;;;;;;;;5042804;28;20402;-84
2023/09/19 12:06:14;;;;;;;2.60;1.38;;;;;;;;;;5044114;28;20032;-83
2023/09/19 12:08:46;;;;;;;2.65;1.73;;;;;;;;;;5038018;28;20071;-83
2023/09/19 12:11:20;;;;;;;6.13;1.95;;;;;;;;;;5034698;28;20481;-84
2023/09/19 12:13:48;;;;;;;1.65;1.15;;;;;;;;;;5031791;28;20117;-83
2023/09/19 12:16:18;;;;;;;2.30;1.20;;;;;;;;;;5040520;28;20547;-82
2023/09/19 12:18:44;;;;;;;2.08;1.23;;;;;;;;;;5036878;28;20021;-83
2023/09/19 12:21:31;;;;;;;2.53;1.58;;;;;;;;;;5038653;28;20032;-85
2023/09/19 12:24:13;;;;;;;1.45;1.02;;;;;;;;;;5034181;28;20037;-84
2023/09/19 12:26:47;;;;;;;3.17;1.75;;;;;;;;;;5034087;28;20033;-85
2023/09/19 12:29:17;;;;;;;2.30;1.83;;;;;;;;;;5034575;28;20047;-86
2023/09/19 12:32:08;;;;;;;2.67;1.67;;;;;;;;;;5033462;28;20033;-84
2023/09/19 12:34:42;;;;;;;2.35;1.30;;;;;;;;;;5029864;28;20486;-83
2023/09/19 12:37:12;;;;;;;3.20;1.70;;;;;;;;;;5039790;28;20048;-85
2023/09/19 12:39:53;;;;;;;2.53;1.70;;;;;;;;;;5033238;28;20860;-83
2023/09/19 12:42:33;;;;;;;2.28;1.35;;;;;;;;;;5031617;28;20033;-87
2023/09/19 12:45:00;;;;;;;3.33;1.75;;;;;;;;;;5031426;28;20040;-85
2023/09/19 12:47:29;;;;;;;5.13;1.85;;;;;;;;;;5035827;28;20789;-88
2023/09/19 12:50:29;;;;;;;1.83;1.60;;;;;;;;;;5034055;28;20021;-84
2023/09/19 12:53:00;;;;;;;3.05;1.58;;;;;;;;;;5025465;28;20028;-85
2023/09/19 12:55:33;;;;;;;4.35;1.70;;;;;;;;;;5034819;28;20025;-86
2023/09/19 12:58:19;;;;;;;3.08;1.67;;;;;;;;;;5035015;28;20021;-84
2023/09/19 13:00:46;;;;;;;3.25;1.88;;;;;;;;;;5031981;28;20017;-83
2023/09/19 13:03:15;;;;;;;1.77;0.95;;;;;;;;;;5034731;28;20033;-81
2023/09/19 13:06:09;;;;;;;1.85;1.70;;;;;;;;;;5033403;28;20021;-81
2023/09/19 13:08:49;;;;;;;2.25;1.80;;;;;;;;;;5032671;28;20025;-82
2023/09/19 13:11:20;;;;;;;1.80;1.38;;;;;;;;;;5043314;28;20107;-83
2023/09/19 13:13:53;;;;;;;3.10;1.98;;;;;;;;;;5033660;28;20087;-85
2023/09/19 13:16:21;;;;;;;2.00;1.60;;;;;;;;;;5039802;28;20041;-84
2023/09/19 13:18:51;;;;;;;2.55;1.45;;;;;;;;;;5034764;28;20079;-83
2023/09/19 13:21:23;;;;;;;;;;;;;;;;;;5042550;28;20389;-82
2023/09/19 13:23:56;;;;;;;3.65;1.58;;;;;;;;;;5041578;28;19917;-84
2023/09/19 13:26:22;;;;;;;2.20;1.52;;;;;;;;;;5034892;28;20029;-83
2023/09/19 13:28:49;;;;;;;2.42;1.50;;;;;;;;;;5035811;28;20061;-81
2023/09/19 13:31:15;;;;;;;2.58;1.65;;;;;;;;;;5031635;28;20363;-81
2023/09/19 13:33:45;;;;;;;2.50;1.70;;;;;;;;;;5036003;28;20055;-83
2023/09/19 13:36:11;;;;;;;2.17;1.45;;;;;;;;;;5042438;28;20029;-86
2023/09/19 13:38:37;;;;;;;1.85;1.58;;;;;;;;;;5042527;28;20028;-83
2023/09/19 13:41:03;;;;;;;1.85;1.50;;;;;;;;;;5050642;28;20048;-85
2023/09/19 13:43:28;;;;;;;2.28;1.73;;;;;;;;;;5042274;28;20100;-83
2023/09/19 13:45:54;;;;;;;1.50;1.30;;;;;;;;;;5041084;28;20029;-82
2023/09/19 13:48:22;;;;;;;2.53;1.65;;;;;;;;;;5044457;28;20037;-83
2023/09/19 13:50:48;;;;;;;2.53;1.60;;;;;;;;;;5032837;28;20038;-84
2023/09/19 13:53:13;;;;;;;2.47;1.55;;;;;;;;;;5045292;28;20507;-83
2023/09/19 13:55:39;;;;;;;1.75;1.30;;;;;;;;;;5042930;28;20032;-83
2023/09/19 13:58:06;;;;;;;3.13;1.20;;;;;;;;;;5040637;28;20230;-84
2023/09/19 14:00:34;;;;;;;2.33;1.52;;;;;;;;;;5040789;28;20470;-83
2023/09/19 14:03:01;;;;;;;2.03;1.20;;;;;;;;;;5029457;28;20144;-81
2023/09/19 14:05:27;;;;;;;1.38;1.20;;;;;;;;;;5035702;28;20025;-83
2023/09/19 14:07:52;;;;;;;2.38;1.55;;;;;;;;;;5036880;28;20055;-83
2023/09/19 14:10:17;;;;;;;2.17;1.50;;;;;;;;;;5034703;28;20446;-81
2023/09/19 14:12:45;;;;;;;1.42;1.30;;;;;;;;;;5042311;28;20044;-82
2023/09/19 14:15:10;;;;;;;2.13;1.45;;;;;;;;;;5038865;28;20029;-86
2023/09/19 14:17:38;;;;;;;2.33;1.65;;;;;;;;;;5035520;28;20083;-85
2023/09/19 14:20:04;;;;;;;2.85;1.35;;;;;;;;;;5034568;28;20787;-83
2023/09/19 14:22:31;;;;;;;1.90;1.52;;;;;;;;;;5033572;28;20033;-82
2023/09/19 14:24:56;;;;;;;1.85;1.67;;;;;;;;;;5044667;28;20025;-83
2023/09/19 14:27:22;;;;;;;3.30;2.10;;;;;;;;;;5034732;28;20077;-82
2023/09/19 14:29:47;;;;;;;3.10;1.45;;;;;;;;;;5040990;28;20465;-85
2023/09/19 14:32:13;;;;;;;2.92;2.00;;;;;;;;;;5042686;28;20045;-86
2023/09/19 14:34:41;;;;;;;3.83;1.70;;;;;;;;;;5032988;28;20485;-85
2023/09/19 14:37:08;;;;;;;2.95;1.92;;;;;;;;;;5044148;28;20395;-84
2023/09/19 14:39:33;;;;;;;1.73;1.38;;;;;;;;;;5039137;28;20492;-86
2023/09/19 14:41:58;;;;;;;2.95;1.58;;;;;;;;;;5036148;28;20064;-83
2023/09/19 14:44:24;;;;;;;2.65;1.48;;;;;;;;;;5040052;28;20025;-83
2023/09/19 14:46:50;;;;;;;2.50;1.38;;;;;;;;;;5034928;28;20078;-83
2023/09/19 14:49:16;;;;;;;1.58;1.17;;;;;;;;;;5048864;28;20478;-84
2023/09/19 14:51:44;;;;;;;1.52;1.20;;;;;;;;;;5043470;28;20025;-82
2023/09/19 14:54:09;;;;;;;5.05;1.65;;;;;;;;;;5048366;28;20404;-84
2023/09/19 14:56:35;;;;;;;2.25;1.65;;;;;;;;;;5047910;28;20021;-85
2023/09/19 14:59:00;;;;;;;1.83;1.35;;;;;;;;;;5038522;28;20036;-84
2023/09/19 15:01:26;;;;;;;2.42;1.42;;;;;;;;;;5041997;28;20036;-85
2023/09/19 15:03:51;;;;;;;2.15;1.52;;;;;;;;;;5039001;28;20358;-84
2023/09/19 15:06:19;;;;;;;2.95;1.77;;;;;;;;;;5042324;28;20029;-84
2023/09/19 15:08:47;;;;;;;1.77;1.30;;;;;;;;;;5043405;28;20025;-84
2023/09/19 15:11:19;;;;;;;2.28;1.83;;;;;;;;;;5046225;28;20120;-84
2023/09/19 15:13:46;;;;;;;2.63;1.70;;;;;;;;;;5041787;28;20548;-86
2023/09/19 15:16:12;;;;;;;2.17;1.70;;;;;;;;;;5044016;28;20052;-84
2023/09/19 15:18:42;;;;;;;1.73;1.20;;;;;;;;;;5041198;28;20112;-84
2023/09/19 15:21:10;;;;;;;1.75;1.20;;;;;;;;;;5033777;28;20025;-87
2023/09/19 15:23:36;;;;;;;3.42;1.80;;;;;;;;;;5041506;28;20037;-84
2023/09/19 15:26:06;;;;;;;3.25;1.60;;;;;;;;;;5042070;28;20443;-84
2023/09/19 15:28:33;;;;;;;1.98;1.50;;;;;;;;;;5045732;28;20028;-86
2023/09/19 15:31:13;;;;;;;2.50;1.80;;;;;;;;;;5033321;28;20029;-84
2023/09/19 15:33:38;;;;;;;2.90;1.55;;;;;;;;;;5042469;28;20076;-86
2023/09/19 15:36:09;;;;;;;2.47;1.58;;;;;;;;;;5034570;28;20029;-84
2023/09/19 15:39:03;;;;;;;2.17;1.42;;;;;;;;;;5039420;28;20087;-85
2023/09/19 15:41:30;;;;;;;2.60;1.98;;;;;;;;;;5042250;28;20674;-84
2023/09/19 15:43:57;;;;;;;2.05;1.58;;;;;;;;;;5042404;28;20034;-84
2023/09/19 15:46:23;;;;;;;2.47;1.35;;;;;;;;;;5042183;28;20032;-84
2023/09/19 15:48:48;;;;;;;3.72;1.98;;;;;;;;;;5039673;28;20029;-84
2023/09/19 15:51:14;;;;;;;1.42;1.15;;;;;;;;;;5036244;28;20060;-84
2023/09/19 15:53:50;;;;;;;2.05;1.33;;;;;;;;;;5047494;28;20071;-83
2023/09/19 15:56:17;;;;;;;1.73;1.38;;;;;;;;;;5038065;28;20040;-84
2023/09/19 15:58:46;;;;;;;2.80;2.03;;;;;;;;;;5038032;28;20382;-87
2023/09/19 16:01:12;;;;;;;2.15;1.48;;;;;;;;;;5037779;28;20025;-84
2023/09/19 16:03:39;;;;;;;2.10;1.52;;;;;;;;;;5046922;28;20036;-87
2023/09/19 16:06:17;;;;;;;1.80;1.25;;;;;;;;;;5038569;28;20099;-84
2023/09/19 16:08:55;;;;;;;2.92;1.85;;;;;;;;;;5033306;28;20511;-83
2023/09/19 16:11:21;;;;;;;2.85;1.67;;;;;;;;;;5037237;28;20113;-85
2023/09/19 16:13:50;;;;;;;2.10;1.42;;;;;;;;;;5040191;28;20108;-85
2023/09/19 16:16:19;;;;;;;2.70;1.73;;;;;;;;;;5040237;28;20083;-86
2023/09/19 16:18:49;;;;;;;4.15;2.78;;;;;;;;;;5039449;28;20020;-85
2023/09/19 16:21:17;;;;;;;1.77;1.48;;;;;;;;;;5032996;28;20036;-85
2023/09/19 16:23:46;;;;;;;2.17;1.48;;;;;;;;;;5040126;28;20034;-85
2023/09/19 16:26:15;;;;;;;4.50;1.83;;;;;;;;;;5042767;28;20079;-85
2023/09/19 16:28:42;;;;;;;3.65;2.38;;;;;;;;;;5037169;28;20033;-84
2023/09/19 16:31:08;;;;;;;3.22;1.75;;;;;;;;;;5044492;28;20025;-84
2023/09/19 16:33:40;;;;;;;2.50;1.52;;;;;;;;;;5036763;28;20063;-83
2023/09/19 16:36:10;;;;;;;2.42;1.67;;;;;;;;;;5039991;28;20386;-84
2023/09/19 16:38:37;;;;;;;;;;;;;;;;;;5039209;28;20042;-84
2023/09/19 16:41:02;;;;;;;5.30;1.83;;;;;;;;;;5038859;28;20385;-84
2023/09/19 16:43:28;;;;;;;2.38;1.70;;;;;;;;;;5040632;28;20104;-86
2023/09/19 16:45:54;;;;;;;2.78;1.92;;;;;;;;;;5039690;28;20411;-85
2023/09/19 16:48:21;;;;;;;5.05;2.42;;;;;;;;;;5035689;28;20044;-86
2023/09/19 16:50:51;;;;;;;4.05;2.58;;;;;;;;;;5040082;28;20037;-86
2023/09/19 16:53:20;;;;;;;3.35;2.05;;;;;;;;;;5037964;28;20124;-87
2023/09/19 16:55:48;;;;;;;2.13;1.63;;;;;;;;;;5035969;28;20465;-84
2023/09/19 16:58:15;;;;;;;1.75;1.25;;;;;;;;;;5034307;28;20029;-89
2023/09/19 17:00:46;;;;;;;1.63;1.40;;;;;;;;;;5035018;28;20075;-85
2023/09/19 17:03:12;;;;;;;2.10;1.40;;;;;;;;;;5038528;28;20120;-90
2023/09/19 17:05:39;;;;;;;4.43;1.73;;;;;;;;;;5038990;28;20105;-86
2023/09/19 17:08:07;;;;;;;1.83;1.45;;;;;;;;;;5040096;28;20017;-86
2023/09/19 17:10:34;;;;;;;3.03;1.98;;;;;;;;;;5043212;28;20029;-88
2023/09/19 17:13:00;;;;;;;3.65;2.30;;;;;;;;;;5037089;28;20536;-86
2023/09/19 17:15:25;;;;;;;2.10;1.85;;;;;;;;;;5035104;28;20060;-86
2023/09/19 17:17:52;;;;;;;2.45;1.60;;;;;;;;;;5039860;28;20045;-85
2023/09/19 17:20:18;;;;;;;1.75;1.65;;;;;;;;;;5036883;28;20072;-86
2023/09/19 17:22:44;;;;;;;3.60;1.92;;;;;;;;;;5031608;28;20066;-88
2023/09/19 17:25:12;;;;;;;5.50;2.20;;;;;;;;;;5033444;28;20025;-86
2023/09/19 17:27:39;;;;;;;1.67;1.52;;;;;;;;;;5035803;28;20040;-87
2023/09/19 17:30:15;;;;;;;3.03;1.65;;;;;;;;;;5036332;28;20120;-86
2023/09/19 17:32:41;;;;;;;1.40;1.10;;;;;;;;;;5036407;28;20472;-87
2023/09/19 17:35:08;;;;;;;2.20;1.67;;;;;;;;;;5038670;28;20094;-88
2023/09/19 17:37:34;;;;;;;2.70;1.88;;;;;;;;;;5045317;28;20021;-87
2023/09/19 17:40:03;;;;;;;1.70;1.25;;;;;;;;;;5037173;28;20108;-87
2023/09/19 17:42:37;;;;;;;5.70;1.58;;;;;;;;;;5043165;28;20052;-88
2023/09/19 17:45:04;;;;;;;1.85;1.70;;;;;;;;;;5035473;28;20029;-87
2023/09/19 17:47:30;;;;;;;3.63;1.52;;;;;;;;;;5037443;28;20025;-87
2023/09/19 17:49:56;;;;;;;3.30;1.88;;;;;;;;;;5040987;28;20030;-86
2023/09/19 17:52:22;;;;;;;2.72;2.13;;;;;;;;;;5037551;28;20493;-85
